4XHPO LLIB-LLKX
Flight info
| Callsign | 4XHPO |
|---|---|
| Flight time | N/A |
| Altitude | 1000 |
| Route | AZAM ROUTES KIDRON AIRFIELD 3149N03448E |
| Aircraft | SVNH/L-V/N |
Departure
| Time | 2026-05-01 11:30 |
|---|---|
| Airport | Rosh Pina Airport (LLIB) |
Arrival
| Time | N/A |
|---|---|
| Airport | LLKX |
| Time | Latitude | Longitude | Altitude | Speed | Heading |
|---|---|---|---|---|---|
| 2026-05-01 11:23 | 32.97993 | 35.57439 | 893 ft | 0 kts | 212° |
| 2026-05-01 11:29 | 32.97912 | 35.57396 | 896 ft | 6 kts | 201° |
| 2026-05-01 11:29 | 32.97900 | 35.57391 | 896 ft | 1 kts | 200° |
| 2026-05-01 11:29 | 32.98036 | 35.57235 | 901 ft | 51 kts | 328° |
| 2026-05-01 11:30 | 32.98393 | 35.56989 | 1018 ft | 66 kts | 321° |
| 2026-05-01 11:30 | 32.98817 | 35.56756 | 1231 ft | 69 kts | 331° |
| 2026-05-01 11:30 | 32.99276 | 35.56537 | 1403 ft | 74 kts | 328° |
| 2026-05-01 11:30 | 32.99769 | 35.56247 | 1494 ft | 82 kts | 327° |
| 2026-05-01 11:31 | 33.00274 | 35.55947 | 1510 ft | 82 kts | 327° |
| 2026-05-01 11:31 | 33.00815 | 35.55660 | 1515 ft | 90 kts | 342° |
| 2026-05-01 11:31 | 33.01352 | 35.55973 | 1585 ft | 90 kts | 56° |
| 2026-05-01 11:31 | 33.01679 | 35.56609 | 1666 ft | 91 kts | 65° |
| 2026-05-01 11:32 | 33.01625 | 35.57350 | 1670 ft | 95 kts | 126° |
| 2026-05-01 11:32 | 33.01088 | 35.57828 | 1680 ft | 99 kts | 149° |
| 2026-05-01 11:32 | 33.00495 | 35.58227 | 1682 ft | 98 kts | 153° |
| 2026-05-01 11:32 | 32.99880 | 35.58593 | 1667 ft | 99 kts | 156° |
| 2026-05-01 11:33 | 32.99258 | 35.58908 | 1647 ft | 96 kts | 159° |
| 2026-05-01 11:33 | 32.98644 | 35.59197 | 1637 ft | 94 kts | 160° |
| 2026-05-01 11:33 | 32.98033 | 35.59481 | 1633 ft | 95 kts | 157° |
| 2026-05-01 11:33 | 32.97430 | 35.59793 | 1652 ft | 94 kts | 157° |
| 2026-05-01 11:34 | 32.96825 | 35.60069 | 1651 ft | 92 kts | 171° |
| 2026-05-01 11:34 | 32.96213 | 35.59935 | 1665 ft | 91 kts | 208° |
| 2026-05-01 11:34 | 32.95664 | 35.59552 | 1657 ft | 92 kts | 211° |
| 2026-05-01 11:34 | 32.95112 | 35.59161 | 1658 ft | 92 kts | 212° |
| 2026-05-01 11:35 | 32.94653 | 35.58646 | 1663 ft | 91 kts | 228° |
| 2026-05-01 11:35 | 32.94211 | 35.58105 | 1662 ft | 91 kts | 226° |
| 2026-05-01 11:35 | 32.93768 | 35.57566 | 1666 ft | 91 kts | 226° |
| 2026-05-01 11:35 | 32.93318 | 35.57038 | 1670 ft | 91 kts | 225° |
| 2026-05-01 11:36 | 32.92860 | 35.56514 | 1677 ft | 91 kts | 223° |
| 2026-05-01 11:36 | 32.92388 | 35.56012 | 1692 ft | 91 kts | 221° |
| 2026-05-01 11:36 | 32.91897 | 35.55535 | 1692 ft | 91 kts | 223° |
| 2026-05-01 11:36 | 32.91420 | 35.55042 | 1687 ft | 92 kts | 217° |
| 2026-05-01 11:37 | 32.90876 | 35.54671 | 1700 ft | 91 kts | 208° |
| 2026-05-01 11:37 | 32.90304 | 35.54340 | 1713 ft | 92 kts | 206° |
| 2026-05-01 11:37 | 32.89718 | 35.54041 | 1738 ft | 91 kts | 201° |
| 2026-05-01 11:37 | 32.89114 | 35.53773 | 1733 ft | 93 kts | 201° |
| 2026-05-01 11:38 | 32.88490 | 35.53561 | 1751 ft | 93 kts | 193° |
| 2026-05-01 11:38 | 32.87851 | 35.53414 | 1750 ft | 95 kts | 190° |
| 2026-05-01 11:38 | 32.87191 | 35.53279 | 1773 ft | 96 kts | 197° |
| 2026-05-01 11:38 | 32.86598 | 35.52934 | 1803 ft | 96 kts | 210° |
| 2026-05-01 11:39 | 32.86009 | 35.52535 | 1775 ft | 101 kts | 211° |
| 2026-05-01 11:39 | 32.85396 | 35.52122 | 1783 ft | 102 kts | 211° |
| 2026-05-01 11:39 | 32.84766 | 35.51728 | 1736 ft | 101 kts | 208° |
| 2026-05-01 11:39 | 32.84160 | 35.51347 | 1644 ft | 94 kts | 216° |
| 2026-05-01 11:40 | 32.83665 | 35.50862 | 1516 ft | 95 kts | 220° |
| 2026-05-01 11:40 | 32.83192 | 35.50301 | 1476 ft | 97 kts | 227° |
| 2026-05-01 11:40 | 32.82635 | 35.49847 | 1470 ft | 98 kts | 210° |
| 2026-05-01 11:40 | 32.82033 | 35.49467 | 1456 ft | 97 kts | 207° |
| 2026-05-01 11:41 | 32.81426 | 35.49119 | 1445 ft | 96 kts | 204° |
| 2026-05-01 11:41 | 32.80804 | 35.48820 | 1432 ft | 95 kts | 201° |
| 2026-05-01 11:41 | 32.80180 | 35.48540 | 1419 ft | 96 kts | 201° |
| 2026-05-01 11:41 | 32.79562 | 35.48251 | 1421 ft | 96 kts | 202° |
| 2026-05-01 11:42 | 32.78948 | 35.47967 | 1409 ft | 96 kts | 201° |
| 2026-05-01 11:42 | 32.78319 | 35.47708 | 1397 ft | 95 kts | 198° |
| 2026-05-01 11:42 | 32.77676 | 35.47508 | 1368 ft | 96 kts | 194° |
| 2026-05-01 11:42 | 32.77029 | 35.47326 | 1366 ft | 95 kts | 194° |
| 2026-05-01 11:43 | 32.76398 | 35.47132 | 1376 ft | 94 kts | 196° |
| 2026-05-01 11:43 | 32.75786 | 35.46923 | 1411 ft | 89 kts | 197° |
| 2026-05-01 11:43 | 32.75194 | 35.46704 | 1434 ft | 89 kts | 199° |
| 2026-05-01 11:44 | 32.74078 | 35.46100 | 1461 ft | 89 kts | 210° |
| 2026-05-01 11:44 | 32.73551 | 35.45749 | 1485 ft | 87 kts | 210° |
| 2026-05-01 11:44 | 32.73018 | 35.45386 | 1506 ft | 89 kts | 211° |
| 2026-05-01 11:44 | 32.72479 | 35.45024 | 1532 ft | 89 kts | 209° |
| 2026-05-01 11:45 | 32.71932 | 35.44676 | 1551 ft | 89 kts | 208° |
| 2026-05-01 11:45 | 32.71381 | 35.44331 | 1562 ft | 90 kts | 208° |
| 2026-05-01 11:45 | 32.70822 | 35.43975 | 1556 ft | 92 kts | 210° |
| 2026-05-01 11:45 | 32.70264 | 35.43595 | 1555 ft | 93 kts | 210° |
| 2026-05-01 11:46 | 32.69892 | 35.43348 | 1562 ft | 92 kts | 209° |
| 2026-05-01 11:46 | 32.69325 | 35.42991 | 1571 ft | 93 kts | 207° |
| 2026-05-01 11:46 | 32.68742 | 35.42664 | 1599 ft | 92 kts | 205° |
| 2026-05-01 11:46 | 32.68154 | 35.42353 | 1619 ft | 93 kts | 206° |
| 2026-05-01 11:47 | 32.67578 | 35.42017 | 1645 ft | 92 kts | 208° |
| 2026-05-01 11:47 | 32.67006 | 35.41667 | 1652 ft | 93 kts | 208° |
| 2026-05-01 11:47 | 32.66426 | 35.41328 | 1690 ft | 92 kts | 207° |
| 2026-05-01 11:47 | 32.65848 | 35.40991 | 1703 ft | 94 kts | 208° |
| 2026-05-01 11:48 | 32.65258 | 35.40612 | 1669 ft | 97 kts | 210° |
| 2026-05-01 11:48 | 32.64682 | 35.40217 | 1681 ft | 96 kts | 210° |
| 2026-05-01 11:48 | 32.64095 | 35.39829 | 1667 ft | 96 kts | 211° |
| 2026-05-01 11:48 | 32.63531 | 35.39417 | 1662 ft | 96 kts | 213° |
| 2026-05-01 11:49 | 32.62960 | 35.38998 | 1639 ft | 96 kts | 211° |
| 2026-05-01 11:49 | 32.62382 | 35.38596 | 1599 ft | 97 kts | 212° |
| 2026-05-01 11:49 | 32.61802 | 35.38195 | 1576 ft | 96 kts | 208° |
| 2026-05-01 11:49 | 32.61203 | 35.37839 | 1544 ft | 96 kts | 207° |
| 2026-05-01 11:50 | 32.60737 | 35.37297 | 1522 ft | 94 kts | 241° |
| 2026-05-01 11:50 | 32.60419 | 35.36615 | 1501 ft | 94 kts | 241° |
| 2026-05-01 11:50 | 32.60084 | 35.35946 | 1488 ft | 94 kts | 239° |
| 2026-05-01 11:50 | 32.59733 | 35.35295 | 1505 ft | 93 kts | 237° |
| 2026-05-01 11:51 | 32.59369 | 35.34661 | 1486 ft | 94 kts | 236° |
| 2026-05-01 11:51 | 32.58994 | 35.34026 | 1484 ft | 93 kts | 234° |
| 2026-05-01 11:51 | 32.58607 | 35.33404 | 1547 ft | 93 kts | 233° |
| 2026-05-01 11:51 | 32.58235 | 35.32797 | 1654 ft | 91 kts | 236° |
| 2026-05-01 11:52 | 32.57869 | 35.32166 | 1671 ft | 92 kts | 237° |
| 2026-05-01 11:52 | 32.57531 | 35.31526 | 1667 ft | 93 kts | 238° |
| 2026-05-01 11:52 | 32.57196 | 35.30886 | 1700 ft | 90 kts | 239° |
| 2026-05-01 11:52 | 32.56882 | 35.30239 | 1723 ft | 91 kts | 240° |
| 2026-05-01 11:53 | 32.56570 | 35.29585 | 1747 ft | 92 kts | 246° |
| 2026-05-01 11:53 | 32.56434 | 35.28841 | 1750 ft | 94 kts | 264° |
| 2026-05-01 11:53 | 32.56383 | 35.28067 | 1739 ft | 96 kts | 265° |
| 2026-05-01 11:53 | 32.56339 | 35.27267 | 1719 ft | 97 kts | 266° |
| 2026-05-01 11:54 | 32.56304 | 35.26468 | 1721 ft | 97 kts | 269° |
| 2026-05-01 11:54 | 32.56314 | 35.25671 | 1692 ft | 97 kts | 272° |
| 2026-05-01 11:54 | 32.56386 | 35.24875 | 1680 ft | 97 kts | 278° |
| 2026-05-01 11:54 | 32.56503 | 35.24090 | 1682 ft | 97 kts | 282° |
| 2026-05-01 11:55 | 32.56643 | 35.23320 | 1672 ft | 95 kts | 282° |
| 2026-05-01 11:55 | 32.56786 | 35.22555 | 1677 ft | 94 kts | 282° |
| 2026-05-01 11:55 | 32.56916 | 35.21801 | 1696 ft | 93 kts | 281° |
| 2026-05-01 11:55 | 32.57045 | 35.21032 | 1685 ft | 96 kts | 279° |
| 2026-05-01 11:56 | 32.56919 | 35.20271 | 1694 ft | 95 kts | 243° |
| 2026-05-01 11:56 | 32.56589 | 35.19602 | 1710 ft | 94 kts | 241° |
| 2026-05-01 11:56 | 32.56201 | 35.18984 | 1684 ft | 95 kts | 228° |
| 2026-05-01 11:56 | 32.55757 | 35.18412 | 1707 ft | 94 kts | 227° |
| 2026-05-01 11:57 | 32.55306 | 35.17846 | 1710 ft | 96 kts | 227° |
| 2026-05-01 11:57 | 32.54853 | 35.17273 | 1694 ft | 96 kts | 228° |
| 2026-05-01 11:57 | 32.54403 | 35.16692 | 1698 ft | 95 kts | 227° |
| 2026-05-01 11:57 | 32.53972 | 35.16091 | 1683 ft | 96 kts | 234° |
| 2026-05-01 11:58 | 32.53583 | 35.15449 | 1663 ft | 96 kts | 235° |
| 2026-05-01 11:58 | 32.53207 | 35.14789 | 1652 ft | 96 kts | 237° |
| 2026-05-01 11:58 | 32.52447 | 35.13509 | 1640 ft | 95 kts | 231° |
| 2026-05-01 11:59 | 32.52028 | 35.12889 | 1603 ft | 95 kts | 232° |
| 2026-05-01 11:59 | 32.51633 | 35.12293 | 1430 ft | 89 kts | 232° |
| 2026-05-01 11:59 | 32.51271 | 35.11678 | 1284 ft | 96 kts | 240° |
| 2026-05-01 12:00 | 32.50895 | 35.10196 | 1224 ft | 96 kts | 254° |
| 2026-05-01 12:00 | 32.50662 | 35.09461 | 1213 ft | 95 kts | 244° |
| 2026-05-01 12:00 | 32.50024 | 35.08076 | 1165 ft | 98 kts | 240° |
| 2026-05-01 12:01 | 32.49688 | 35.07366 | 1117 ft | 99 kts | 240° |
| 2026-05-01 12:01 | 32.49348 | 35.06652 | 1019 ft | 99 kts | 241° |
| 2026-05-01 12:01 | 32.48943 | 35.06008 | 856 ft | 97 kts | 229° |
| 2026-05-01 12:01 | 32.48492 | 35.05394 | 763 ft | 98 kts | 230° |
| 2026-05-01 12:02 | 32.48056 | 35.04810 | 743 ft | 96 kts | 228° |
| 2026-05-01 12:02 | 32.47597 | 35.04232 | 692 ft | 96 kts | 226° |
| 2026-05-01 12:02 | 32.47154 | 35.03635 | 645 ft | 96 kts | 231° |
| 2026-05-01 12:02 | 32.46726 | 35.03029 | 610 ft | 95 kts | 230° |
| 2026-05-01 12:03 | 32.46281 | 35.02444 | 571 ft | 96 kts | 228° |
| 2026-05-01 12:03 | 32.45908 | 35.01807 | 573 ft | 93 kts | 237° |
| 2026-05-01 12:03 | 32.45547 | 35.01174 | 556 ft | 93 kts | 235° |
| 2026-05-01 12:03 | 32.45172 | 35.00558 | 529 ft | 93 kts | 234° |
| 2026-05-01 12:04 | 32.44777 | 34.99956 | 526 ft | 92 kts | 230° |
| 2026-05-01 12:04 | 32.44395 | 34.99353 | 515 ft | 91 kts | 245° |
| 2026-05-01 12:04 | 32.44125 | 34.98667 | 488 ft | 92 kts | 245° |
| 2026-05-01 12:04 | 32.43842 | 34.97992 | 494 ft | 91 kts | 243° |
| 2026-05-01 12:05 | 32.43545 | 34.97318 | 471 ft | 92 kts | 242° |
| 2026-05-01 12:05 | 32.42997 | 34.95947 | 441 ft | 92 kts | 249° |
| 2026-05-01 12:05 | 32.42772 | 34.95244 | 413 ft | 93 kts | 250° |
| 2026-05-01 12:06 | 32.42569 | 34.94525 | 416 ft | 91 kts | 252° |
| 2026-05-01 12:06 | 32.42436 | 34.93793 | 405 ft | 91 kts | 263° |
| 2026-05-01 12:06 | 32.42201 | 34.93093 | 363 ft | 93 kts | 242° |
| 2026-05-01 12:06 | 32.41943 | 34.92408 | 370 ft | 89 kts | 260° |
| 2026-05-01 12:07 | 32.41983 | 34.91689 | 378 ft | 88 kts | 277° |
| 2026-05-01 12:07 | 32.42071 | 34.90972 | 394 ft | 88 kts | 278° |
| 2026-05-01 12:07 | 32.42161 | 34.90247 | 403 ft | 89 kts | 278° |
| 2026-05-01 12:07 | 32.42260 | 34.89526 | 405 ft | 89 kts | 279° |
| 2026-05-01 12:08 | 32.42368 | 34.88803 | 404 ft | 89 kts | 279° |
| 2026-05-01 12:08 | 32.42462 | 34.88079 | 400 ft | 91 kts | 276° |
| 2026-05-01 12:08 | 32.42384 | 34.87330 | 373 ft | 93 kts | 243° |
| 2026-05-01 12:08 | 32.41864 | 34.86950 | 366 ft | 92 kts | 192° |
| 2026-05-01 12:09 | 32.41250 | 34.86807 | 392 ft | 88 kts | 192° |
| 2026-05-01 12:09 | 32.40649 | 34.86648 | 396 ft | 89 kts | 195° |
| 2026-05-01 12:09 | 32.40049 | 34.86474 | 392 ft | 90 kts | 194° |
| 2026-05-01 12:09 | 32.39443 | 34.86308 | 390 ft | 90 kts | 193° |
| 2026-05-01 12:10 | 32.38831 | 34.86145 | 396 ft | 89 kts | 193° |
| 2026-05-01 12:10 | 32.37613 | 34.85825 | 398 ft | 90 kts | 193° |
| 2026-05-01 12:10 | 32.37002 | 34.85670 | 401 ft | 90 kts | 193° |
| 2026-05-01 12:11 | 32.35790 | 34.85364 | 401 ft | 90 kts | 192° |
| 2026-05-01 12:11 | 32.35178 | 34.85213 | 406 ft | 89 kts | 193° |
| 2026-05-01 12:11 | 32.34569 | 34.85049 | 407 ft | 90 kts | 194° |
| 2026-05-01 12:12 | 32.33962 | 34.84876 | 408 ft | 90 kts | 195° |
| 2026-05-01 12:12 | 32.33357 | 34.84701 | 412 ft | 89 kts | 194° |
| 2026-05-01 12:12 | 32.32751 | 34.84521 | 415 ft | 90 kts | 195° |
| 2026-05-01 12:12 | 32.32147 | 34.84340 | 422 ft | 89 kts | 194° |
| 2026-05-01 12:13 | 32.31546 | 34.84181 | 420 ft | 90 kts | 192° |
| 2026-05-01 12:13 | 32.30936 | 34.84034 | 428 ft | 89 kts | 193° |
| 2026-05-01 12:13 | 32.30333 | 34.83842 | 430 ft | 90 kts | 197° |
| 2026-05-01 12:13 | 32.29739 | 34.83624 | 436 ft | 89 kts | 198° |
| 2026-05-01 12:14 | 32.29141 | 34.83414 | 437 ft | 90 kts | 196° |
| 2026-05-01 12:14 | 32.28535 | 34.83243 | 439 ft | 90 kts | 193° |
| 2026-05-01 12:14 | 32.27920 | 34.83108 | 444 ft | 90 kts | 189° |
| 2026-05-01 12:14 | 32.27303 | 34.82990 | 439 ft | 90 kts | 193° |
| 2026-05-01 12:15 | 32.26688 | 34.82801 | 433 ft | 90 kts | 197° |
| 2026-05-01 12:15 | 32.26091 | 34.82591 | 434 ft | 90 kts | 198° |
| 2026-05-01 12:15 | 32.25492 | 34.82382 | 435 ft | 90 kts | 196° |
| 2026-05-01 12:15 | 32.24887 | 34.82197 | 432 ft | 90 kts | 195° |
| 2026-05-01 12:16 | 32.24282 | 34.82010 | 433 ft | 90 kts | 197° |
| 2026-05-01 12:16 | 32.23682 | 34.81803 | 438 ft | 90 kts | 196° |
| 2026-05-01 12:16 | 32.23085 | 34.81616 | 438 ft | 90 kts | 195° |
| 2026-05-01 12:16 | 32.22480 | 34.81417 | 437 ft | 90 kts | 198° |
| 2026-05-01 12:17 | 32.21881 | 34.81195 | 427 ft | 91 kts | 198° |
| 2026-05-01 12:17 | 32.21279 | 34.80975 | 437 ft | 90 kts | 197° |
| 2026-05-01 12:17 | 32.20679 | 34.80766 | 436 ft | 90 kts | 197° |
| 2026-05-01 12:17 | 32.20078 | 34.80563 | 440 ft | 90 kts | 197° |
| 2026-05-01 12:18 | 32.19477 | 34.80353 | 440 ft | 90 kts | 198° |
| 2026-05-01 12:18 | 32.18881 | 34.80139 | 441 ft | 90 kts | 197° |
| 2026-05-01 12:18 | 32.18277 | 34.79937 | 447 ft | 89 kts | 197° |
| 2026-05-01 12:18 | 32.17689 | 34.79719 | 443 ft | 90 kts | 198° |
| 2026-05-01 12:19 | 32.17095 | 34.79487 | 441 ft | 90 kts | 200° |
| 2026-05-01 12:19 | 32.16509 | 34.79237 | 439 ft | 90 kts | 201° |
| 2026-05-01 12:19 | 32.15922 | 34.78977 | 440 ft | 90 kts | 201° |
| 2026-05-01 12:19 | 32.15332 | 34.78738 | 445 ft | 90 kts | 198° |
| 2026-05-01 12:20 | 32.14730 | 34.78532 | 444 ft | 90 kts | 195° |
| 2026-05-01 12:20 | 32.14131 | 34.78320 | 437 ft | 90 kts | 200° |
| 2026-05-01 12:20 | 32.13534 | 34.78069 | 419 ft | 92 kts | 200° |
| 2026-05-01 12:20 | 32.12937 | 34.77817 | 418 ft | 91 kts | 201° |
| 2026-05-01 12:21 | 32.12341 | 34.77554 | 414 ft | 91 kts | 201° |
| 2026-05-01 12:21 | 32.11743 | 34.77304 | 407 ft | 91 kts | 199° |
| 2026-05-01 12:21 | 32.11134 | 34.77086 | 406 ft | 91 kts | 197° |
| 2026-05-01 12:21 | 32.10523 | 34.76880 | 403 ft | 91 kts | 197° |
| 2026-05-01 12:22 | 32.09921 | 34.76668 | 394 ft | 91 kts | 198° |
| 2026-05-01 12:22 | 32.09317 | 34.76435 | 396 ft | 91 kts | 199° |
| 2026-05-01 12:22 | 32.08710 | 34.76208 | 387 ft | 91 kts | 197° |
| 2026-05-01 12:22 | 32.08105 | 34.75984 | 382 ft | 92 kts | 200° |
| 2026-05-01 12:23 | 32.07510 | 34.75715 | 382 ft | 91 kts | 202° |
| 2026-05-01 12:23 | 32.06922 | 34.75438 | 379 ft | 91 kts | 204° |
| 2026-05-01 12:23 | 32.06344 | 34.75131 | 368 ft | 91 kts | 205° |
| 2026-05-01 12:23 | 32.05765 | 34.74826 | 365 ft | 91 kts | 204° |
| 2026-05-01 12:24 | 32.05177 | 34.74548 | 359 ft | 91 kts | 201° |
| 2026-05-01 12:24 | 32.04580 | 34.74291 | 350 ft | 91 kts | 199° |
| 2026-05-01 12:24 | 32.03973 | 34.74074 | 343 ft | 91 kts | 195° |
| 2026-05-01 12:24 | 32.03356 | 34.73900 | 349 ft | 90 kts | 193° |
| 2026-05-01 12:25 | 32.02747 | 34.73739 | 348 ft | 90 kts | 193° |
| 2026-05-01 12:25 | 32.01523 | 34.73412 | 360 ft | 89 kts | 194° |
| 2026-05-01 12:25 | 32.00932 | 34.73217 | 377 ft | 88 kts | 198° |
| 2026-05-01 12:26 | 32.00341 | 34.73041 | 402 ft | 87 kts | 186° |
| 2026-05-01 12:26 | 31.99188 | 34.73400 | 441 ft | 90 kts | 156° |
| 2026-05-01 12:26 | 31.98614 | 34.73694 | 456 ft | 89 kts | 158° |
| 2026-05-01 12:27 | 31.98031 | 34.73950 | 451 ft | 91 kts | 159° |
| 2026-05-01 12:27 | 31.97849 | 34.74780 | 451 ft | 87 kts | 330° |
| 2026-05-01 12:28 | 31.97045 | 34.74530 | 381 ft | 90 kts | 176° |
| 2026-05-01 12:28 | 31.96420 | 34.74478 | 380 ft | 90 kts | 188° |
| 2026-05-01 12:28 | 31.95168 | 34.74314 | 370 ft | 90 kts | 166° |
| 2026-05-01 12:29 | 31.94608 | 34.74636 | 390 ft | 89 kts | 149° |
| 2026-05-01 12:29 | 31.94079 | 34.75027 | 396 ft | 91 kts | 147° |
| 2026-05-01 12:29 | 31.93034 | 34.75855 | 417 ft | 90 kts | 146° |
| 2026-05-01 12:30 | 31.92102 | 34.76820 | 441 ft | 90 kts | 145° |
| 2026-05-01 12:30 | 31.91517 | 34.76958 | 460 ft | 88 kts | 197° |
| 2026-05-01 12:30 | 31.90934 | 34.76695 | 446 ft | 90 kts | 203° |
| 2026-05-01 12:31 | 31.90343 | 34.76418 | 431 ft | 92 kts | 201° |
| 2026-05-01 12:31 | 31.89748 | 34.76136 | 426 ft | 92 kts | 205° |
| 2026-05-01 12:31 | 31.89135 | 34.75959 | 413 ft | 92 kts | 187° |
| 2026-05-01 12:31 | 31.88499 | 34.75893 | 408 ft | 92 kts | 185° |
| 2026-05-01 12:32 | 31.87860 | 34.75838 | 402 ft | 92 kts | 184° |
| 2026-05-01 12:32 | 31.86841 | 34.76135 | 399 ft | 91 kts | 159° |
| 2026-05-01 12:32 | 31.86278 | 34.76483 | 390 ft | 92 kts | 150° |
| 2026-05-01 12:33 | 31.85730 | 34.76866 | 392 ft | 92 kts | 149° |
| 2026-05-01 12:33 | 31.85012 | 34.77369 | 418 ft | 89 kts | 149° |
| 2026-05-01 12:33 | 31.84655 | 34.77628 | 425 ft | 89 kts | 148° |
| 2026-05-01 12:33 | 31.84133 | 34.78032 | 435 ft | 90 kts | 145° |
| 2026-05-01 12:34 | 31.83655 | 34.78475 | 432 ft | 83 kts | 134° |
| 2026-05-01 12:34 | 31.83374 | 34.78997 | 412 ft | 73 kts | 114° |
| 2026-05-01 12:34 | 31.83197 | 34.79530 | 409 ft | 64 kts | 111° |
| 2026-05-01 12:34 | 31.83069 | 34.80006 | 321 ft | 61 kts | 126° |
| 2026-05-01 12:35 | 31.82689 | 34.79985 | 164 ft | 44 kts | 199° |
| 2026-05-01 12:35 | 31.82630 | 34.79972 | 162 ft | 0 kts | 190° |